Yilaxi, China
Current Conditions -  °F | °C
As of 10:00 AM on Thursday 23 Oct 2014 (Local Time) from ZYCC Reporting Station
Smoke Smoke  
Wind Chill: 54°   Ceiling: 2300
Heat Index: 54°   Visibility: 2.5mi
Dew Point: 23°   Wind: 16mph
Humidity: 30%   Direction: 190°S
Pressure: 29.91"   Gusts: NA
Location:  43.77°N, 126.12°E
Report Text: ZYCC 230200Z 19007MPS 4000 FU BKN023 12/M05 Q1013 NOSIG
Loading
Personal Weather Stations






























Interactive Weather Map
Tropical Storm Tracking
New forecast layout! Learn more

10-Day Weather Forecast

Advertisements
Track Severe Weather on mobile